Time;durP1;ratioP1;P1;durP2;ratioP2;P2;SDS_P1;SDS_P2;PMS_P1;PMS_P2;Temp;Humidity;BMP_temperature;BMP_pressure;BME280_temperature;BME280_humidity;BME280_pressure;Samples;Min_cycle;Max_cycle;Signal;HPM_P1;HPM_P2
2023/05/02 04:17:33;;;;;;;4.67;3.67;;;;;;;9.10;100.00;100416.09;5549472;31;1683569;-88
2023/05/02 04:20:44;;;;;;;5.90;3.93;;;;;;;9.12;100.00;100415.09;5582257;32;33484;-88
2023/05/02 04:23:52;;;;;;;6.78;3.92;;;;;;;9.27;100.00;100418.00;5582629;32;34627;-88
2023/05/02 04:27:02;;;;;;;6.95;4.03;;;;;;;9.39;100.00;100414.81;5582007;31;33742;-88
2023/05/02 04:30:12;;;;;;;6.23;3.83;;;;;;;9.47;100.00;100418.91;5582415;32;33622;-88
2023/05/02 04:33:19;;;;;;;6.50;3.60;;;;;;;9.60;100.00;100425.34;5582238;32;33756;-88
2023/05/02 04:36:28;;;;;;;4.90;3.70;;;;;;;9.76;100.00;100428.16;5582370;31;34539;-89
2023/05/02 04:39:37;;;;;;;8.05;3.75;;;;;;;9.90;99.41;100435.50;5582194;32;33538;-88
2023/05/02 04:42:45;;;;;;;6.60;3.67;;;;;;;10.05;97.02;100441.03;5581999;31;34732;-88
2023/05/02 04:45:53;;;;;;;7.47;3.87;;;;;;;10.20;94.42;100436.78;5583407;32;33613;-89
2023/05/02 04:49:03;;;;;;;5.70;3.90;;;;;;;10.48;91.02;100433.72;5581750;31;33800;-89
2023/05/02 04:52:11;;;;;;;5.75;4.00;;;;;;;10.68;89.92;100433.66;5584667;32;34478;-88
2023/05/02 04:55:19;;;;;;;8.07;3.62;;;;;;;10.76;89.86;100439.47;5583257;32;34254;-88
2023/05/02 04:58:28;;;;;;;7.53;4.30;;;;;;;10.79;86.50;100444.59;5583474;32;33721;-88
2023/05/02 05:01:36;;;;;;;4.75;4.10;;;;;;;10.94;86.50;100447.44;5582412;31;34095;-88
2023/05/02 05:04:44;;;;;;;9.93;3.85;;;;;;;11.25;85.47;100445.88;5581745;32;33676;-86
2023/05/02 05:07:51;;;;;;;5.78;4.05;;;;;;;11.53;85.12;100452.41;5582927;31;34094;-87
2023/05/02 05:11:00;;;;;;;7.95;4.12;;;;;;;11.82;79.97;100450.00;5573332;31;34493;-87
2023/05/02 05:14:08;;;;;;;5.90;4.05;;;;;;;11.88;78.91;100452.34;5591766;31;33767;-88
2023/05/02 05:17:14;;;;;;;7.43;4.43;;;;;;;12.31;77.58;100441.16;5595359;31;35154;-87
2023/05/02 05:20:18;;;;;;;9.15;4.30;;;;;;;12.60;77.12;100449.31;5597023;31;33955;-87
2023/05/02 05:23:26;;;;;;;8.90;4.70;;;;;;;12.64;74.72;100447.31;5570217;31;33518;-87
2023/05/02 05:26:34;;;;;;;11.75;4.47;;;;;;;12.99;75.07;100449.75;5579736;31;33921;-88
2023/05/02 05:29:41;;;;;;;9.00;4.20;;;;;;;14.05;70.43;100454.06;5577232;31;33702;-88
2023/05/02 05:32:48;;;;;;;6.93;4.30;;;;;;;14.49;67.37;100459.31;5573387;31;33754;-87
2023/05/02 05:35:56;;;;;;;6.47;4.03;;;;;;;14.16;67.94;100458.72;5586795;31;34562;-88
2023/05/02 05:39:03;;;;;;;6.10;4.30;;;;;;;14.65;66.11;100461.84;5594028;31;35057;-88
2023/05/02 05:42:11;;;;;;;7.78;4.22;;;;;;;15.26;64.18;100466.75;5580370;31;34293;-92
2023/05/02 05:45:21;;;;;;;7.72;4.43;;;;;;;15.96;61.76;100463.78;5577164;31;34335;-90
2023/05/02 05:48:28;;;;;;;7.70;3.90;;;;;;;16.12;59.72;100468.88;5572539;31;34720;-88
2023/05/02 05:51:36;;;;;;;10.60;4.15;;;;;;;16.54;59.83;100480.13;5589924;31;34937;-88
2023/05/02 05:54:43;;;;;;;5.35;4.50;;;;;;;16.64;58.29;100491.00;5586206;31;33758;-88
2023/05/02 05:57:49;;;;;;;8.20;4.22;;;;;;;16.27;58.46;100477.63;5566979;31;34431;-87
2023/05/02 06:00:56;;;;;;;7.15;4.22;;;;;;;16.48;58.65;100480.56;5570800;31;33323;-87
2023/05/02 06:03:59;;;;;;;7.28;4.30;;;;;;;17.02;56.93;100477.53;5566470;31;33633;-87
2023/05/02 06:07:02;;;;;;;7.90;4.03;;;;;;;17.54;55.03;100479.94;5577511;31;33845;-87
2023/05/02 06:10:08;;;;;;;5.62;4.30;;;;;;;18.13;53.37;100480.69;5580905;31;34060;-87
2023/05/02 06:13:12;;;;;;;11.88;5.00;;;;;;;19.00;50.70;100492.47;5575127;31;33761;-87
2023/05/02 06:16:18;;;;;;;13.68;4.87;;;;;;;20.03;46.57;100489.19;5584388;31;33323;-88
2023/05/02 06:19:24;;;;;;;7.37;5.50;;;;;;;20.80;44.26;100491.34;5576696;31;33654;-88
2023/05/02 06:22:31;;;;;;;6.32;5.00;;;;;;;21.65;42.08;100485.34;5559703;31;33659;-88
2023/05/02 06:25:38;;;;;;;8.38;5.10;;;;;;;21.87;41.71;100491.44;5587851;31;34294;-87
2023/05/02 06:28:41;;;;;;;9.77;4.45;;;;;;;21.59;42.18;100484.09;5580737;31;33910;-89
2023/05/02 06:31:43;;;;;;;8.50;4.47;;;;;;;21.62;41.35;100485.66;5588592;31;34205;-88
2023/05/02 06:34:46;;;;;;;7.15;4.85;;;;;;;21.35;42.81;100490.81;5567050;31;33860;-88
2023/05/02 06:37:49;;;;;;;8.30;5.12;;;;;;;20.81;42.89;100496.62;5548549;32;35265;-88
2023/05/02 06:40:53;;;;;;;10.65;5.40;;;;;;;;;;5552223;31;33319;-87
2023/05/02 06:43:56;;;;;;;8.85;5.20;;;;;;;19.93;45.31;100492.66;5593399;26;34059;-89
2023/05/02 06:47:00;;;;;;;8.13;4.87;;;;;;;20.34;46.09;100481.09;5564685;31;34447;-89
2023/05/02 06:50:04;;;;;;;15.35;5.65;;;;;;;20.34;45.54;100491.84;5557079;31;33674;-86
2023/05/02 06:53:09;;;;;;;7.43;5.10;;;;;;;20.12;45.18;100482.16;5552469;32;34136;-86
2023/05/02 06:56:13;;;;;;;5.85;5.00;;;;;;;20.45;44.76;100490.88;5556517;31;34380;-86
2023/05/02 06:59:19;;;;;;;7.37;4.87;;;;;;;20.98;43.12;100494.25;5551453;32;34744;-86
2023/05/02 07:02:23;;;;;;;10.85;5.10;;;;;;;21.92;41.80;100491.81;5557384;32;34034;-86
2023/05/02 07:05:28;;;;;;;8.45;4.95;;;;;;;21.06;42.72;100485.47;5554839;32;34352;-86
2023/05/02 07:08:34;;;;;;;6.82;4.57;;;;;;;21.14;42.73;100481.03;5549245;31;33414;-87
2023/05/02 07:11:40;;;;;;;11.68;5.00;;;;;;;21.85;41.14;100488.88;5558048;32;34469;-85
2023/05/02 07:14:46;;;;;;;6.22;4.87;;;;;;;20.90;42.89;100486.88;5554957;32;34174;-87
2023/05/02 07:17:51;;;;;;;7.70;4.85;;;;;;;20.07;43.99;100479.88;5548610;32;34049;-91
2023/05/02 07:20:54;;;;;;;8.45;4.93;;;;;;;21.03;42.82;100481.22;5552900;32;33439;-89
2023/05/02 07:23:58;;;;;;;5.50;4.65;;;;;;;21.32;42.85;100484.87;5560701;32;33823;-90
2023/05/02 07:27:04;;;;;;;8.52;4.95;;;;;;;20.49;43.61;100481.53;5569093;32;33621;-85
2023/05/02 07:30:09;;;;;;;5.97;4.22;;;;;;;20.89;43.79;100476.22;5553858;32;34096;-84
2023/05/02 07:33:14;;;;;;;6.28;4.43;;;;;;;21.42;43.22;100472.19;5553231;32;34177;-84
2023/05/02 07:36:18;;;;;;;9.52;4.80;;;;;;;21.62;42.03;100480.28;5569242;32;33656;-85
2023/05/02 07:39:24;;;;;;;7.75;4.60;;;;;;;21.63;42.46;100479.25;5551304;32;33574;-85
2023/05/02 07:42:32;;;;;;;6.25;4.78;;;;;;;21.06;41.50;100485.47;5553088;32;33718;-90
2023/05/02 07:45:38;;;;;;;5.97;4.30;;;;;;;20.32;43.61;100489.28;5554087;32;33524;-88
2023/05/02 07:48:44;;;;;;;5.07;4.30;;;;;;;21.05;43.33;100487.28;5560320;32;33849;-87
2023/05/02 07:51:50;;;;;;;8.82;4.60;;;;;;;21.28;41.68;100492.41;5557822;32;33702;-85
2023/05/02 07:54:58;;;;;;;7.45;4.50;;;;;;;21.81;41.06;100490.16;5548511;32;33692;-84
2023/05/02 07:58:05;;;;;;;7.37;4.57;;;;;;;21.94;41.07;100492.56;5548211;32;34764;-84
2023/05/02 08:01:09;;;;;;;12.07;4.50;;;;;;;22.09;41.18;100487.50;5550586;32;34839;-84
2023/05/02 08:04:13;;;;;;;9.23;4.75;;;;;;;22.01;41.54;100485.56;5550131;32;34294;-88
2023/05/02 08:07:17;;;;;;;6.85;4.68;;;;;;;21.99;40.14;100495.66;5548921;31;33988;-88
2023/05/02 08:10:23;;;;;;;8.07;4.87;;;;;;;22.69;40.37;100494.31;5557208;32;34421;-86
2023/05/02 08:13:28;;;;;;;13.75;4.90;;;;;;;22.88;38.92;100493.31;5551989;32;32650;-84
2023/05/02 08:16:33;;;;;;;8.38;5.00;;;;;;;22.60;39.37;100489.81;5561846;32;34423;-85
2023/05/02 08:19:37;;;;;;;9.60;4.70;;;;;;;23.71;37.98;100493.12;5559342;32;34461;-84
2023/05/02 08:22:41;;;;;;;6.72;4.25;;;;;;;23.58;37.62;100492.72;5556246;32;34788;-85
2023/05/02 08:25:45;;;;;;;9.07;4.10;;;;;;;23.74;37.96;100498.22;5558005;32;34011;-85
2023/05/02 08:28:49;;;;;;;11.05;4.43;;;;;;;24.17;36.88;100494.72;5554855;32;34121;-85
2023/05/02 08:31:52;;;;;;;10.88;4.55;;;;;;;24.17;36.14;100494.72;5571293;31;34546;-84
2023/05/02 08:34:57;;;;;;;9.73;4.40;;;;;;;24.18;36.32;100497.28;5554051;31;33653;-84
2023/05/02 08:38:21;;;;;;;8.45;4.47;;;;;;;24.33;36.60;100489.38;5568361;32;33749;-83
2023/05/02 08:41:28;;;;;;;8.15;4.50;;;;;;;24.57;35.70;100485.06;5557224;31;34165;-85
2023/05/02 08:44:32;;;;;;;7.78;4.37;;;;;;;24.90;35.36;100487.84;5559070;31;34427;-88
2023/05/02 08:47:39;;;;;;;12.98;4.72;;;;;;;25.20;34.30;100486.50;5563486;31;33096;-89
2023/05/02 08:50:45;;;;;;;7.07;4.28;;;;;;;24.44;36.34;100481.97;5551612;32;35656;-85
2023/05/02 08:53:51;;;;;;;6.37;4.50;;;;;;;24.13;36.12;100480.66;5548709;32;35162;-85
2023/05/02 08:56:58;;;;;;;18.60;5.10;;;;;;;23.57;36.70;100485.59;5555419;32;33634;-84
2023/05/02 09:00:03;;;;;;;7.60;4.45;;;;;;;23.52;37.33;100481.50;5551687;32;33883;-85
2023/05/02 09:03:34;;;;;;;7.22;4.10;;;;;;;24.12;35.96;100473.56;5555572;32;34591;-85
2023/05/02 09:06:42;;;;;;;7.60;4.07;;;;;;;24.80;36.69;100473.56;5560663;32;34410;-84
2023/05/02 09:09:48;;;;;;;7.32;3.87;;;;;;;25.24;35.42;100471.56;5556157;32;33455;-85
2023/05/02 09:12:57;;;;;;;6.93;4.05;;;;;;;26.10;34.23;100474.59;5552892;32;33824;-83
2023/05/02 09:16:06;;;;;;;7.45;3.80;;;;;;;25.45;33.79;100465.62;5552615;32;33413;-84
2023/05/02 09:19:24;;;;;;;5.72;3.78;;;;;;;24.46;34.82;100466.38;5554092;32;33743;-84
2023/05/02 09:22:32;;;;;;;11.07;4.40;;;;;;;23.62;38.70;100459.75;5553611;32;34321;-84
2023/05/02 09:25:40;;;;;;;22.15;4.28;;;;;;;24.26;36.29;100455.81;5540622;32;34547;-84
2023/05/02 09:28:54;;;;;;;7.15;3.62;;;;;;;24.22;35.47;100460.72;5557694;32;33943;-84
2023/05/02 09:32:03;;;;;;;9.43;3.60;;;;;;;24.91;34.75;100461.56;5568054;32;34088;-84
2023/05/02 09:35:12;;;;;;;5.03;3.53;;;;;;;25.16;34.59;100465.09;5573005;32;33921;-84
2023/05/02 09:38:22;;;;;;;4.27;3.77;;;;;;;25.40;33.78;100460.69;5572755;32;34536;-87
2023/05/02 09:41:38;;;;;;;8.85;3.62;;;;;;;25.14;34.93;100458.19;5564828;32;33873;-84
2023/05/02 09:44:46;;;;;;;5.78;3.55;;;;;;;24.39;35.39;100455.34;5563355;32;34875;-84
2023/05/02 09:47:52;;;;;;;4.28;3.40;;;;;;;25.03;33.93;100470.22;5574104;32;33591;-84
2023/05/02 09:50:57;;;;;;;7.37;3.50;;;;;;;25.23;34.35;100457.16;5575025;32;33797;-84
2023/05/02 09:54:03;;;;;;;5.28;3.50;;;;;;;26.63;31.85;100454.97;5574246;32;33805;-84
2023/05/02 09:57:09;;;;;;;6.10;3.42;;;;;;;26.97;30.62;100463.78;5573962;32;33817;-84
2023/05/02 10:00:18;;;;;;;4.65;3.70;;;;;;;27.17;29.80;100447.75;5573212;31;33709;-85
2023/05/02 10:03:28;;;;;;;5.62;3.58;;;;;;;27.62;30.34;100460.63;5571438;32;33763;-84
2023/05/02 10:06:35;;;;;;;6.00;3.40;;;;;;;27.22;30.45;100449.09;5560004;32;33982;-83
2023/05/02 10:09:43;;;;;;;9.43;3.75;;;;;;;27.40;30.50;100440.59;5553301;32;33935;-84
2023/05/02 10:12:51;;;;;;;10.27;3.70;;;;;;;28.02;30.14;100446.72;5565473;32;34575;-84
2023/05/02 10:16:06;;;;;;;6.30;3.33;;;;;;;26.30;32.50;100454.34;5565878;32;34093;-84
2023/05/02 10:19:12;;;;;;;7.70;3.70;;;;;;;26.81;31.89;100442.94;5569551;32;33898;-84
2023/05/02 10:22:19;;;;;;;6.90;3.97;;;;;;;26.46;31.26;100446.06;5557297;32;34010;-84
2023/05/02 10:25:26;;;;;;;11.52;3.15;;;;;;;26.27;31.92;100428.34;5558206;32;33532;-84
2023/05/02 10:28:33;;;;;;;8.55;3.58;;;;;;;26.19;32.08;100421.03;5552942;32;34020;-84
2023/05/02 10:31:39;;;;;;;5.57;3.35;;;;;;;27.44;30.82;100440.03;5551602;32;33922;-84
2023/05/02 10:34:49;;;;;;;4.07;3.53;;;;;;;28.12;28.49;100435.50;5582560;31;32418;-84
2023/05/02 10:37:54;;;;;;;5.62;3.37;;;;;;;29.50;26.75;100441.88;5555239;31;33708;-84
2023/05/02 10:41:33;;;;;;;10.40;3.60;;;;;;;29.63;26.70;100432.94;5562738;32;33972;-84
2023/05/02 10:44:40;;;;;;;7.62;3.60;;;;;;;29.43;26.40;100432.78;5530399;32;33921;-84
2023/05/02 10:47:45;;;;;;;8.50;3.45;;;;;;;28.91;28.65;100427.56;5561010;32;33713;-84
2023/05/02 10:50:50;;;;;;;7.28;3.90;;;;;;;28.05;29.32;100431.84;5567665;31;33632;-84
2023/05/02 10:53:53;;;;;;;8.52;3.90;;;;;;;26.06;32.51;100429.78;5551197;32;34481;-84
2023/05/02 10:57:02;;;;;;;5.30;3.97;;;;;;;25.40;33.36;100435.41;5569521;31;33841;-84
2023/05/02 11:00:20;;;;;;;6.65;4.00;;;;;;;25.06;34.48;100415.63;5574928;31;33858;-83
2023/05/02 11:03:57;;;;;;;4.32;3.80;;;;;;;25.42;33.39;100430.66;5557489;31;33878;-84
2023/05/02 11:07:05;;;;;;;4.87;3.65;;;;;;;25.38;34.30;100413.84;5567325;32;33798;-84
2023/05/02 11:10:17;;;;;;;6.28;3.83;;;;;;;25.69;33.96;100426.69;5555954;32;34236;-84
2023/05/02 11:13:49;;;;;;;7.32;3.42;;;;;;;25.75;34.13;100414.28;5570750;31;34913;-83
2023/05/02 11:17:03;;;;;;;5.37;3.85;;;;;;;24.88;34.92;100429.34;5553299;32;33409;-84
2023/05/02 11:20:08;;;;;;;5.37;3.55;;;;;;;25.68;33.56;100413.28;5569769;31;34042;-84
2023/05/02 11:23:15;;;;;;;3.92;3.20;;;;;;;26.23;33.33;100416.13;5554664;32;33994;-86
2023/05/02 11:26:22;;;;;;;10.30;3.50;;;;;;;26.48;32.19;100413.25;5549531;32;33953;-84
2023/05/02 11:29:53;;;;;;;4.30;3.62;;;;;;;25.67;32.99;100406.16;5550759;32;34146;-85
2023/05/02 11:33:03;;;;;;;14.27;3.58;;;;;;;25.38;34.09;100400.28;5555433;31;34719;-85
2023/05/02 11:36:08;;;;;;;4.73;3.63;;;;;;;24.77;36.60;100401.53;5557717;32;34678;-85
2023/05/02 11:39:19;;;;;;;9.57;3.92;;;;;;;24.05;37.18;100400.19;5549251;32;34408;-85
2023/05/02 11:42:30;;;;;;;4.97;3.90;;;;;;;24.96;35.92;100394.09;5566869;32;34245;-85
2023/05/02 11:45:38;;;;;;;;;;;;;;;25.08;36.63;100389.13;5549576;32;33439;-85
2023/05/02 11:48:41;;;;;;;5.32;3.30;;;;;;;24.58;36.26;100391.84;5555893;32;34500;-86
2023/05/02 11:51:45;;;;;;;5.35;3.65;;;;;;;24.97;35.83;100393.06;5549869;32;33862;-87
2023/05/02 11:54:54;;;;;;;4.20;3.60;;;;;;;24.48;36.03;100394.72;5551453;32;34796;-87
2023/05/02 11:57:58;;;;;;;7.57;3.90;;;;;;;24.57;36.50;100389.28;5557015;32;33739;-86
2023/05/02 12:01:13;;;;;;;5.78;3.40;;;;;;;24.92;36.24;100383.72;5555702;32;33899;-86
2023/05/02 12:04:22;;;;;;;14.07;4.15;;;;;;;24.65;35.80;100383.88;5554802;32;34007;-86
2023/05/02 12:07:38;;;;;;;5.85;3.60;;;;;;;24.55;36.49;100375.91;5554277;32;34121;-85
2023/05/02 12:10:44;;;;;;;7.60;3.80;;;;;;;24.53;37.48;100377.94;5564075;32;33993;-88
2023/05/02 12:13:49;;;;;;;4.50;3.75;;;;;;;24.81;35.86;100380.34;5559953;32;34728;-89
2023/05/02 12:16:55;;;;;;;7.47;3.80;;;;;;;24.98;35.52;100377.59;5558989;32;34207;-89
2023/05/02 12:19:58;;;;;;;7.55;3.70;;;;;;;25.24;35.13;100377.41;5557777;32;33790;-86
2023/05/02 12:23:06;;;;;;;7.93;3.67;;;;;;;25.41;35.96;100363.78;5549543;32;34400;-87
2023/05/02 12:26:24;;;;;;;5.28;3.75;;;;;;;25.59;34.91;100370.91;5554802;32;33635;-86
2023/05/02 12:29:39;;;;;;;5.30;3.30;;;;;;;25.04;35.69;100368.78;5553696;32;33959;-86
2023/05/02 12:32:44;;;;;;;5.80;3.45;;;;;;;24.92;35.48;100359.31;5560934;32;33825;-86
2023/05/02 12:35:52;;;;;;;4.35;3.50;;;;;;;24.76;36.23;100351.00;5560965;32;33822;-86
2023/05/02 12:38:58;;;;;;;5.53;3.20;;;;;;;25.00;34.34;100354.72;5563784;31;34170;-86
2023/05/02 12:42:14;;;;;;;6.85;3.03;;;;;;;25.41;33.43;100361.94;5552391;32;33720;-86
2023/05/02 12:45:20;;;;;;;7.85;3.33;;;;;;;24.60;33.04;100359.13;5529727;32;33858;-86
2023/05/02 12:48:26;;;;;;;4.95;2.90;;;;;;;24.12;34.10;100353.50;5535074;32;33610;-87
2023/05/02 12:51:31;;;;;;;6.72;3.20;;;;;;;24.81;33.78;100352.37;5519275;32;33612;-87
2023/05/02 12:54:35;;;;;;;13.82;3.28;;;;;;;24.62;33.01;100351.66;5531760;32;33848;-87
2023/05/02 12:57:42;;;;;;;10.27;3.50;;;;;;;24.51;33.17;100352.84;5531596;32;33525;-86
2023/05/02 13:00:49;;;;;;;8.30;3.37;;;;;;;24.25;32.56;100348.44;5533570;32;34501;-87
2023/05/02 13:03:55;;;;;;;6.25;3.12;;;;;;;24.23;33.38;100356.72;5532307;32;34103;-87
2023/05/02 13:07:01;;;;;;;6.97;3.20;;;;;;;24.17;32.86;100349.25;5537685;32;34209;-86
2023/05/02 13:10:08;;;;;;;7.10;3.12;;;;;;;23.96;33.28;100349.69;5512765;32;34542;-86
2023/05/02 13:13:14;;;;;;;7.55;3.08;;;;;;;24.04;33.16;100347.00;5513559;32;33836;-86
2023/05/02 13:16:20;;;;;;;9.75;3.72;;;;;;;24.03;33.54;100339.06;5523987;32;35084;-86
2023/05/02 13:19:29;;;;;;;10.40;3.25;;;;;;;23.99;33.37;100338.53;5530775;32;34492;-85
2023/05/02 13:22:36;;;;;;;11.93;3.30;;;;;;;23.60;33.79;100331.81;5551453;32;35237;-90
2023/05/02 13:25:41;;;;;;;6.97;3.80;;;;;;;23.42;34.62;100335.44;5549600;32;33791;-88
2023/05/02 13:28:49;;;;;;;13.43;3.47;;;;;;;23.49;35.11;100341.03;5540441;32;34426;-86
2023/05/02 13:31:54;;;;;;;9.45;3.60;;;;;;;23.46;35.43;100330.56;5527680;32;35413;-84
2023/05/02 13:35:00;;;;;;;18.00;4.10;;;;;;;23.36;36.22;100340.66;5520449;32;34718;-84
2023/05/02 13:38:06;;;;;;;8.23;3.50;;;;;;;23.24;36.76;100340.88;5547577;32;34470;-84
2023/05/02 13:41:13;;;;;;;13.65;3.30;;;;;;;23.08;36.99;100335.41;5532784;32;33489;-84
2023/05/02 13:44:18;;;;;;;12.60;3.65;;;;;;;23.09;36.44;100323.56;5560892;32;34308;-83
2023/05/02 13:47:25;;;;;;;7.05;3.40;;;;;;;23.22;36.54;100329.41;5571092;32;34984;-84
2023/05/02 13:50:30;;;;;;;11.85;3.50;;;;;;;23.29;35.95;100321.50;5572177;32;34013;-84
2023/05/02 13:53:37;;;;;;;6.70;3.17;;;;;;;23.29;36.44;100325.03;5564630;32;34387;-86
2023/05/02 13:56:46;;;;;;;13.05;3.55;;;;;;;23.29;35.88;100333.16;5565462;32;33812;-87
2023/05/02 13:59:54;;;;;;;9.40;3.83;;;;;;;23.10;36.12;100333.38;5579616;31;34886;-86
2023/05/02 14:03:04;;;;;;;10.97;3.20;;;;;;;22.89;35.90;100338.16;5569214;32;33565;-87
2023/05/02 14:06:12;;;;;;;6.30;3.22;;;;;;;22.87;36.15;100328.50;5562443;32;34436;-86
2023/05/02 14:09:19;;;;;;;6.32;3.62;;;;;;;22.79;36.62;100328.44;5564315;32;33880;-86
2023/05/02 14:12:24;;;;;;;8.00;3.53;;;;;;;22.74;36.78;100324.34;5562736;32;33634;-86
2023/05/02 14:15:32;;;;;;;6.70;3.15;;;;;;;22.46;37.68;100331.69;5551293;32;33355;-85
2023/05/02 14:18:41;;;;;;;5.65;3.65;;;;;;;22.29;38.94;100330.69;5549916;32;33590;-86
2023/05/02 14:21:50;;;;;;;8.43;3.80;;;;;;;22.24;39.39;100333.88;5552242;32;34366;-87
2023/05/02 14:24:59;;;;;;;4.72;3.40;;;;;;;22.05;39.87;100326.75;5557805;32;32798;-86
2023/05/02 14:28:06;;;;;;;4.97;3.17;;;;;;;21.91;40.58;100328.97;5554814;32;33970;-87
2023/05/02 14:31:15;;;;;;;6.45;3.50;;;;;;;22.00;40.64;100329.91;5551582;32;34314;-91
2023/05/02 14:34:25;;;;;;;6.80;3.90;;;;;;;22.17;40.58;100322.00;5550510;32;34335;-91
2023/05/02 14:37:35;;;;;;;7.87;3.20;;;;;;;22.15;40.83;100326.69;5550761;32;33733;-87
2023/05/02 14:40:43;;;;;;;7.43;3.50;;;;;;;22.22;38.88;100327.75;5554286;32;33432;-87
2023/05/02 14:43:52;;;;;;;10.38;3.35;;;;;;;22.23;37.92;100329.47;5552207;32;35065;-87
2023/05/02 14:46:59;;;;;;;8.25;3.45;;;;;;;22.36;36.60;100326.38;5549547;32;34057;-87
2023/05/02 14:50:10;;;;;;;9.07;3.60;;;;;;;22.26;36.79;100337.25;5549593;32;33749;-87
2023/05/02 14:53:17;;;;;;;11.10;3.97;;;;;;;22.39;37.12;100334.19;5549382;32;33648;-85
2023/05/02 14:56:27;;;;;;;16.27;4.18;;;;;;;22.52;37.14;100332.97;5549949;32;33855;-87
2023/05/02 14:59:34;;;;;;;10.63;4.10;;;;;;;22.56;37.18;100337.91;5567351;31;34449;-87
2023/05/02 15:02:44;;;;;;;7.15;3.53;;;;;;;22.45;38.15;100340.81;5568193;32;34011;-87
2023/05/02 15:05:51;;;;;;;11.50;4.00;;;;;;;22.51;37.00;100332.06;5568924;32;34563;-87
2023/05/02 15:09:00;;;;;;;8.88;4.50;;;;;;;22.51;37.45;100326.66;5569279;32;34327;-86
2023/05/02 15:12:09;;;;;;;10.98;3.92;;;;;;;22.54;37.43;100330.94;5568563;32;34592;-85
2023/05/02 15:15:23;;;;;;;12.88;4.37;;;;;;;22.49;37.66;100336.81;5568132;32;34664;-85
2023/05/02 15:18:31;;;;;;;11.95;3.35;;;;;;;22.43;37.64;100332.03;5567811;32;33907;-85
2023/05/02 15:21:39;;;;;;;8.00;3.62;;;;;;;22.40;36.71;100329.59;5568576;32;33725;-85
